Time;durP1;ratioP1;P1;durP2;ratioP2;P2;SDS_P1;SDS_P2;PMS_P1;PMS_P2;Temp;Humidity;BMP_temperature;BMP_pressure;BME280_temperature;BME280_humidity;BME280_pressure;Samples;Min_cycle;Max_cycle;Signal;HPM_P1;HPM_P2
2021/12/04 00:02:05;;;;;;;4.75;1.08;;;10.60;99.90;;;;;;5094457;28;20028;-72
2021/12/04 00:04:37;;;;;;;4.82;1.00;;;10.60;99.90;;;;;;5094452;28;20035;-70
2021/12/04 00:07:07;;;;;;;7.03;1.15;;;10.60;99.90;;;;;;5094511;28;20028;-70
2021/12/04 00:09:34;;;;;;;3.55;0.80;;;10.50;99.90;;;;;;5093536;28;20024;-71
2021/12/04 00:12:02;;;;;;;;;;;10.50;99.90;;;;;;5094777;28;20031;-70
2021/12/04 00:14:33;;;;;;;5.57;1.10;;;10.60;99.90;;;;;;5092883;28;19957;-70
2021/12/04 00:17:01;;;;;;;6.03;1.48;;;10.60;99.90;;;;;;5094168;28;20445;-71
2021/12/04 00:19:28;;;;;;;13.50;1.10;;;10.70;99.90;;;;;;5094260;28;20042;-70
2021/12/04 00:21:54;;;;;;;;;;;10.70;99.90;;;;;;5094399;28;20024;-70
2021/12/04 00:24:21;;;;;;;5.37;0.83;;;10.60;99.90;;;;;;5094484;28;19995;-70
2021/12/04 00:26:49;;;;;;;6.22;1.00;;;10.50;99.90;;;;;;5093929;28;20297;-70
2021/12/04 00:29:15;;;;;;;6.63;1.48;;;10.60;99.90;;;;;;5094285;28;20031;-69
2021/12/04 00:31:48;;;;;;;7.75;1.33;;;10.70;99.90;;;;;;5093103;28;20031;-70
2021/12/04 00:34:15;;;;;;;7.10;1.00;;;10.80;99.90;;;;;;5092410;28;20476;-71
2021/12/04 00:50:10;;;;;;;7.15;1.20;;;11.10;99.90;;;;;;5093977;28;20495;-70
2021/12/04 00:52:36;;;;;;;6.82;1.00;;;11.10;99.90;;;;;;5093614;28;20055;-70
2021/12/04 00:55:05;;;;;;;6.28;0.85;;;11.10;99.90;;;;;;5093534;28;20016;-71
2021/12/04 00:57:31;;;;;;;5.05;0.88;;;11.20;99.90;;;;;;5093762;28;20461;-71
2021/12/04 00:59:58;;;;;;;3.88;0.70;;;11.20;99.90;;;;;;5092168;28;20020;-70
2021/12/04 01:02:25;;;;;;;5.05;0.98;;;11.10;99.90;;;;;;5093610;28;20032;-70
2021/12/04 01:04:52;;;;;;;7.07;1.00;;;11.10;99.90;;;;;;5093551;28;20028;-70
2021/12/04 01:07:20;;;;;;;7.00;1.20;;;11.20;99.90;;;;;;5092731;28;20376;-71
2021/12/04 01:09:47;;;;;;;6.13;1.00;;;11.10;99.90;;;;;;5093718;28;20020;-72
2021/12/04 01:12:13;;;;;;;6.20;0.90;;;11.20;99.90;;;;;;5092138;28;20059;-71
2021/12/04 01:14:40;;;;;;;8.77;1.02;;;11.20;99.90;;;;;;5093376;28;20054;-71
2021/12/04 01:17:06;;;;;;;;;;;11.20;99.90;;;;;;5094178;28;20024;-72
2021/12/04 01:19:32;;;;;;;7.30;1.00;;;11.20;99.90;;;;;;5093442;28;19911;-71
2021/12/04 01:21:59;;;;;;;7.83;1.30;;;11.20;99.90;;;;;;5092013;28;20032;-70
2021/12/04 01:24:25;;;;;;;4.80;0.80;;;11.20;99.90;;;;;;5091788;28;20267;-71
2021/12/04 01:26:51;;;;;;;5.20;1.03;;;11.30;99.90;;;;;;5093464;28;20067;-71
2021/12/04 01:29:18;;;;;;;7.78;1.08;;;11.30;99.90;;;;;;5091185;28;20397;-71
2021/12/04 01:31:44;;;;;;;;;;;11.20;99.90;;;;;;5092321;28;20131;-71
2021/12/04 01:34:11;;;;;;;11.38;1.20;;;11.30;99.90;;;;;;5091634;28;19908;-71
2021/12/04 01:36:39;;;;;;;7.88;1.55;;;11.30;99.90;;;;;;5092964;28;20136;-71
2021/12/04 01:39:06;;;;;;;9.27;1.60;;;11.20;99.90;;;;;;5093099;28;20032;-71
2021/12/04 01:41:33;;;;;;;9.77;1.17;;;11.20;99.90;;;;;;5092795;28;20103;-70
2021/12/04 01:43:59;;;;;;;;;;;11.20;99.90;;;;;;5093484;28;20028;-71
2021/12/04 01:46:27;;;;;;;8.10;1.30;;;11.20;99.90;;;;;;5092779;28;19908;-71
2021/12/04 01:48:53;;;;;;;7.55;1.25;;;11.10;99.90;;;;;;5092965;28;20421;-71
2021/12/04 01:51:20;;;;;;;5.73;0.90;;;11.20;99.90;;;;;;5093221;28;20078;-71
2021/12/04 01:53:46;;;;;;;6.20;1.38;;;11.20;99.90;;;;;;5092738;28;20294;-72
2021/12/04 01:56:13;;;;;;;8.83;1.20;;;11.20;99.90;;;;;;5092728;28;20104;-70
2021/12/04 01:58:43;;;;;;;9.63;1.77;;;11.20;99.90;;;;;;5093110;28;20111;-71
2021/12/04 02:01:09;;;;;;;8.63;1.00;;;11.20;99.90;;;;;;5091642;28;20024;-71
2021/12/04 02:03:36;;;;;;;9.50;1.65;;;11.20;99.90;;;;;;5074705;28;20081;-71
2021/12/04 02:06:03;;;;;;;12.10;1.70;;;11.20;99.90;;;;;;5092411;28;20131;-70
2021/12/04 02:08:30;;;;;;;5.03;1.02;;;11.20;99.90;;;;;;5092452;28;20494;-70
2021/12/04 02:10:59;;;;;;;6.40;1.02;;;11.20;99.90;;;;;;5092731;28;20024;-70
2021/12/04 02:13:26;;;;;;;4.40;0.98;;;11.20;99.90;;;;;;5090896;28;20020;-71
2021/12/04 02:15:53;;;;;;;5.93;1.45;;;11.20;99.90;;;;;;5092325;28;20105;-71
2021/12/04 02:18:20;;;;;;;7.13;1.02;;;11.20;99.90;;;;;;5092781;28;20024;-71
2021/12/04 02:20:47;;;;;;;5.90;0.80;;;11.10;99.90;;;;;;5092587;28;20031;-70
2021/12/04 02:23:13;;;;;;;5.55;0.80;;;11.20;99.90;;;;;;5092752;28;20017;-70
2021/12/04 02:25:41;;;;;;;8.20;1.27;;;11.10;99.90;;;;;;5092137;28;20099;-70
2021/12/04 02:28:08;;;;;;;10.75;1.27;;;11.10;99.90;;;;;;5090992;28;20770;-70
2021/12/04 02:30:37;;;;;;;8.77;1.63;;;11.10;99.90;;;;;;5093004;28;20020;-70
2021/12/04 02:33:11;;;;;;;6.13;1.25;;;11.10;99.90;;;;;;5092520;28;20046;-71
2021/12/04 02:36:02;;;;;;;5.13;1.02;;;11.10;99.90;;;;;;5092503;28;20048;-72
2021/12/04 02:38:29;;;;;;;5.07;1.05;;;11.10;99.90;;;;;;5093005;28;20407;-72
2021/12/04 02:40:57;;;;;;;5.28;1.10;;;11.10;99.90;;;;;;5094249;28;20024;-70
2021/12/04 02:43:24;;;;;;;6.72;1.00;;;11.10;99.90;;;;;;5096587;28;20482;-70
2021/12/04 02:45:50;;;;;;;9.98;1.17;;;11.10;99.90;;;;;;5096761;28;20024;-71
2021/12/04 02:48:17;;;;;;;7.20;1.08;;;11.20;99.90;;;;;;5094832;28;20105;-71
2021/12/04 02:50:43;;;;;;;;;;;11.20;99.90;;;;;;5096618;28;20012;-70
2021/12/04 02:53:09;;;;;;;3.17;0.70;;;11.10;99.90;;;;;;5094865;28;19908;-71
2021/12/04 02:55:36;;;;;;;8.13;1.53;;;11.10;99.90;;;;;;5096522;28;20024;-71
2021/12/04 02:58:02;;;;;;;3.53;0.80;;;11.10;99.90;;;;;;5096274;28;20188;-70
2021/12/04 03:00:29;;;;;;;4.72;0.82;;;11.10;99.90;;;;;;5096357;28;20409;-71
2021/12/04 03:02:56;;;;;;;6.07;0.77;;;11.10;99.90;;;;;;5094703;28;20028;-71
2021/12/04 03:05:28;;;;;;;5.78;1.08;;;11.10;99.90;;;;;;5095945;28;20063;-70
2021/12/04 03:07:57;;;;;;;8.48;1.42;;;11.10;99.90;;;;;;5094356;28;20043;-71
2021/12/04 03:10:24;;;;;;;8.75;1.02;;;11.10;99.90;;;;;;5095773;28;20016;-70
2021/12/04 03:12:50;;;;;;;;;;;11.20;99.90;;;;;;5094834;28;20060;-71
2021/12/04 03:15:17;;;;;;;3.58;0.80;;;11.10;99.90;;;;;;5096094;28;19977;-70
2021/12/04 03:17:43;;;;;;;4.38;0.90;;;11.10;99.90;;;;;;5095534;28;20036;-71
2021/12/04 03:20:11;;;;;;;3.72;0.82;;;11.10;99.90;;;;;;5094235;28;20050;-71
2021/12/04 03:22:39;;;;;;;4.78;0.80;;;11.20;99.90;;;;;;5096160;28;20039;-70
2021/12/04 03:25:06;;;;;;;3.50;0.57;;;11.20;99.90;;;;;;5094115;28;20027;-70
2021/12/04 03:27:33;;;;;;;5.13;1.10;;;11.20;99.90;;;;;;5095849;28;20040;-70
2021/12/04 03:30:07;;;;;;;5.53;0.93;;;11.20;99.90;;;;;;5095384;28;20020;-71
2021/12/04 03:40:52;;;;;;;5.80;0.95;;;11.30;99.90;;;;;;5095283;28;20164;-72
2021/12/04 03:43:18;;;;;;;1.95;0.63;;;11.30;99.90;;;;;;5095550;28;20020;-71
2021/12/04 03:45:47;;;;;;;5.70;0.97;;;11.30;99.90;;;;;;5093546;28;20134;-70
2021/12/04 03:50:54;;;;;;;4.93;0.80;;;11.40;99.90;;;;;;5094249;28;20021;-70
2021/12/04 03:53:21;;;;;;;6.35;0.90;;;11.40;99.90;;;;;;5094673;28;20502;-70
2021/12/04 03:55:47;;;;;;;7.13;0.90;;;11.40;99.90;;;;;;5094785;28;20039;-70
2021/12/04 03:58:13;;;;;;;5.20;0.90;;;11.40;99.90;;;;;;5094981;28;20262;-70
2021/12/04 04:00:39;;;;;;;4.27;0.90;;;11.50;99.90;;;;;;5095264;28;20095;-70
2021/12/04 04:03:07;;;;;;;5.83;1.17;;;11.40;99.90;;;;;;5095283;28;20023;-70
2021/12/04 04:05:33;;;;;;;5.60;1.27;;;11.40;99.90;;;;;;5094583;28;20364;-70
2021/12/04 04:08:00;;;;;;;4.43;1.40;;;11.40;99.90;;;;;;5094863;28;20096;-70
2021/12/04 04:10:27;;;;;;;3.70;0.88;;;11.30;99.90;;;;;;5094929;28;20034;-71
2021/12/04 04:12:54;;;;;;;2.97;0.88;;;11.10;99.90;;;;;;5094781;28;20408;-70
2021/12/04 04:15:22;;;;;;;4.28;0.90;;;11.10;99.90;;;;;;5093379;28;20032;-71
2021/12/04 04:17:49;;;;;;;2.72;0.88;;;11.00;99.90;;;;;;5094731;28;20016;-71
2021/12/04 04:20:20;;;;;;;6.13;1.10;;;11.00;99.90;;;;;;5092925;28;20081;-71
2021/12/04 04:22:50;;;;;;;3.28;0.82;;;10.90;99.90;;;;;;5076490;28;20476;-72
2021/12/04 04:25:17;;;;;;;3.97;1.00;;;10.90;99.90;;;;;;5093730;28;20028;-71
2021/12/04 04:27:45;;;;;;;6.20;1.00;;;10.90;99.90;;;;;;5094811;28;20088;-70
2021/12/04 04:30:17;;;;;;;7.10;0.95;;;10.90;99.90;;;;;;5094842;28;20029;-71
2021/12/04 04:32:45;;;;;;;7.10;1.00;;;11.00;99.90;;;;;;5094028;28;20102;-70
2021/12/04 04:35:18;;;;;;;6.55;1.17;;;11.00;99.90;;;;;;5093158;28;20055;-71
2021/12/04 04:37:52;;;;;;;7.88;0.85;;;11.10;99.90;;;;;;5093382;28;20016;-71
2021/12/04 04:40:43;;;;;;;3.80;0.80;;;11.20;99.90;;;;;;5094842;28;20024;-70
2021/12/04 05:13:18;;;;;;;9.98;1.15;;;11.30;99.90;;;;;;5094027;28;20020;-70
2021/12/04 05:18:32;;;;;;;7.95;0.98;;;11.20;99.90;;;;;;5092479;28;20132;-70
2021/12/04 05:21:07;;;;;;;8.30;0.90;;;11.20;99.90;;;;;;5093489;28;20038;-70
2021/12/04 05:23:36;;;;;;;5.82;1.00;;;11.20;99.90;;;;;;5093617;28;20020;-70
2021/12/04 05:26:07;;;;;;;5.85;1.00;;;11.20;99.90;;;;;;5093648;28;20123;-70
2021/12/04 05:28:34;;;;;;;5.22;1.00;;;11.10;99.90;;;;;;5093867;28;20028;-70
2021/12/04 05:31:00;;;;;;;4.63;0.97;;;11.00;99.90;;;;;;5093785;28;20077;-70
2021/12/04 05:33:26;;;;;;;4.70;0.85;;;10.90;99.90;;;;;;5094004;28;20262;-70
2021/12/04 05:35:53;;;;;;;6.65;1.10;;;10.80;99.90;;;;;;5093637;28;20036;-70
2021/12/04 05:38:20;;;;;;;9.10;1.27;;;10.90;99.90;;;;;;5093691;28;20157;-70
2021/12/04 05:40:47;;;;;;;9.27;1.23;;;10.90;99.90;;;;;;5093651;28;20103;-70
2021/12/04 05:43:14;;;;;;;9.57;1.15;;;10.80;99.90;;;;;;5093492;28;20496;-70
2021/12/04 05:45:46;;;;;;;;;;;10.90;99.90;;;;;;5093872;28;20356;-70
2021/12/04 05:48:22;;;;;;;6.55;1.02;;;10.80;99.90;;;;;;5093526;28;19908;-70
2021/12/04 05:53:19;;;;;;;4.97;1.00;;;10.80;99.90;;;;;;5093388;28;20030;-71
2021/12/04 05:55:52;;;;;;;4.82;1.02;;;10.80;99.90;;;;;;5093351;28;20032;-71
2021/12/04 05:58:31;;;;;;;6.65;1.38;;;10.80;99.90;;;;;;5093313;28;20107;-71
2021/12/04 06:01:19;;;;;;;6.40;1.20;;;10.80;99.90;;;;;;5093686;28;20028;-71
2021/12/04 06:03:45;;;;;;;5.22;1.00;;;10.80;99.90;;;;;;5090194;28;20379;-71
2021/12/04 06:06:12;;;;;;;5.75;1.20;;;10.80;99.90;;;;;;5091902;28;20577;-72
2021/12/04 06:08:40;;;;;;;5.63;1.23;;;10.90;99.90;;;;;;5091883;28;20077;-71
2021/12/04 06:11:08;;;;;;;7.43;1.23;;;10.90;99.90;;;;;;5092994;28;20051;-71
2021/12/04 06:13:34;;;;;;;4.93;0.93;;;10.90;99.90;;;;;;5091790;28;20093;-71
2021/12/04 06:16:01;;;;;;;7.03;1.15;;;10.90;99.90;;;;;;5093036;28;20093;-72
2021/12/04 06:18:27;;;;;;;6.70;1.10;;;11.00;99.90;;;;;;5093206;28;20032;-72
2021/12/04 06:23:38;;;;;;;6.97;1.08;;;11.10;99.90;;;;;;5093130;28;20085;-72
2021/12/04 06:26:07;;;;;;;4.80;1.10;;;11.30;99.90;;;;;;5092956;28;20036;-72
2021/12/04 06:28:34;;;;;;;5.10;1.20;;;11.70;99.90;;;;;;5092418;28;20357;-74
2021/12/04 06:31:10;;;;;;;7.70;1.20;;;12.10;99.90;;;;;;5092236;28;20052;-72
2021/12/04 06:33:38;;;;;;;6.05;1.23;;;12.50;99.90;;;;;;5092232;28;20371;-72
2021/12/04 06:36:05;;;;;;;10.60;1.20;;;12.70;99.90;;;;;;5090490;28;20097;-72
2021/12/04 06:38:31;;;;;;;;;;;12.70;99.90;;;;;;5092924;28;20024;-72
2021/12/04 06:40:57;;;;;;;7.82;1.52;;;12.80;99.90;;;;;;5092145;28;19904;-72
2021/12/04 06:43:25;;;;;;;5.13;1.43;;;13.40;99.90;;;;;;5092021;28;20069;-71
2021/12/04 06:45:59;;;;;;;8.05;1.08;;;14.10;99.90;;;;;;5092412;28;20020;-72
2021/12/04 06:48:35;;;;;;;9.73;1.90;;;15.00;99.90;;;;;;5091561;28;20448;-76
2021/12/04 06:51:08;;;;;;;9.77;1.42;;;15.60;99.90;;;;;;5091737;28;20028;-72
2021/12/04 06:53:42;;;;;;;5.22;1.10;;;16.40;99.90;;;;;;5090046;28;20039;-73
2021/12/04 06:56:11;;;;;;;6.82;1.00;;;16.70;99.50;;;;;;5091397;28;20016;-72
2021/12/04 06:58:37;;;;;;;5.32;1.25;;;16.70;99.20;;;;;;5089717;28;20138;-73
2021/12/04 07:01:10;;;;;;;10.88;1.30;;;17.10;99.30;;;;;;5090093;28;20108;-71
2021/12/04 07:03:37;;;;;;;10.35;1.40;;;17.70;98.40;;;;;;5074073;28;20059;-72
2021/12/04 07:06:04;;;;;;;9.32;1.63;;;17.90;97.70;;;;;;5091720;28;20062;-72
2021/12/04 07:08:30;;;;;;;;;;;17.80;97.40;;;;;;5090221;28;20489;-73
2021/12/04 07:10:56;;;;;;;6.07;1.45;;;17.90;97.00;;;;;;5091623;28;19908;-72
2021/12/04 07:13:24;;;;;;;6.55;1.50;;;17.50;97.50;;;;;;5091129;28;20036;-71
2021/12/04 07:16:01;;;;;;;6.00;1.27;;;17.20;97.60;;;;;;5091432;28;20035;-72
2021/12/04 07:18:29;;;;;;;4.28;1.08;;;16.90;98.40;;;;;;5091847;28;20020;-73
2021/12/04 07:20:55;;;;;;;;;;;17.50;97.70;;;;;;5092425;28;20028;-72
2021/12/04 07:23:21;;;;;;;7.18;1.25;;;18.40;96.20;;;;;;5091912;28;19912;-72
2021/12/04 07:25:48;;;;;;;5.63;1.30;;;18.60;95.70;;;;;;5091970;28;20027;-73
2021/12/04 07:28:14;;;;;;;4.93;1.20;;;18.80;95.80;;;;;;5094346;28;20028;-73
2021/12/04 07:30:42;;;;;;;;;;;19.10;94.60;;;;;;5095885;28;20028;-71
2021/12/04 07:33:08;;;;;;;5.53;1.40;;;19.80;94.60;;;;;;5095218;28;19904;-71
2021/12/04 07:35:34;;;;;;;6.35;1.33;;;20.30;93.70;;;;;;5095253;28;20404;-73
2021/12/04 07:38:00;;;;;;;6.75;1.65;;;20.20;93.60;;;;;;5095261;28;20021;-72
2021/12/04 07:40:27;;;;;;;8.07;1.35;;;19.70;94.10;;;;;;5095250;28;20039;-74
2021/12/04 07:42:53;;;;;;;8.32;1.42;;;19.00;94.90;;;;;;5095600;28;20349;-72
2021/12/04 07:45:20;;;;;;;12.43;1.40;;;18.20;96.10;;;;;;5093748;28;20077;-71
2021/12/04 07:47:47;;;;;;;5.90;1.65;;;17.90;96.40;;;;;;5095291;28;20051;-72
2021/12/04 07:50:14;;;;;;;6.32;1.65;;;17.90;97.30;;;;;;5095431;28;20027;-72
2021/12/04 07:52:42;;;;;;;6.05;1.50;;;17.80;96.30;;;;;;5095025;28;20353;-71
2021/12/04 07:55:09;;;;;;;5.60;1.20;;;17.70;96.60;;;;;;5076776;28;20024;-71
2021/12/04 07:57:37;;;;;;;4.50;1.30;;;17.40;97.10;;;;;;5094880;28;20035;-72
2021/12/04 08:00:07;;;;;;;7.10;1.73;;;17.10;97.40;;;;;;5095294;28;20047;-72
2021/12/04 08:02:33;;;;;;;8.57;1.52;;;17.00;97.20;;;;;;5094692;28;20024;-71
2021/12/04 08:05:00;;;;;;;5.88;1.17;;;16.80;96.80;;;;;;5094681;28;20028;-72
2021/12/04 08:07:28;;;;;;;6.47;1.50;;;16.60;97.20;;;;;;5094638;28;20032;-74
2021/12/04 08:09:54;;;;;;;5.80;1.38;;;16.80;97.50;;;;;;5093531;28;20039;-73
2021/12/04 08:12:20;;;;;;;7.27;1.37;;;17.10;97.40;;;;;;5094990;28;20107;-73
2021/12/04 08:14:47;;;;;;;9.47;1.33;;;17.00;97.20;;;;;;5095322;28;20260;-72
2021/12/04 08:17:14;;;;;;;6.78;1.23;;;17.00;96.90;;;;;;5094831;28;20262;-71
2021/12/04 08:19:46;;;;;;;5.63;1.42;;;17.00;97.10;;;;;;5094386;28;20032;-72
2021/12/04 08:22:13;;;;;;;6.60;0.93;;;17.00;97.10;;;;;;5094762;28;20032;-72
2021/12/04 08:24:40;;;;;;;4.80;1.13;;;17.10;96.30;;;;;;5095080;28;20097;-73
2021/12/04 08:27:08;;;;;;;4.57;1.20;;;17.20;96.10;;;;;;5094552;28;20364;-72
2021/12/04 08:29:36;;;;;;;8.98;1.40;;;17.20;96.00;;;;;;5093974;28;20052;-73
2021/12/04 08:32:03;;;;;;;7.32;1.38;;;17.40;96.30;;;;;;5094418;28;20130;-73
2021/12/04 08:34:29;;;;;;;4.60;1.05;;;17.60;95.80;;;;;;5092612;28;20031;-73
2021/12/04 08:36:57;;;;;;;9.73;1.27;;;17.70;95.50;;;;;;5076536;28;20504;-74
2021/12/04 08:39:23;;;;;;;6.45;1.48;;;17.90;94.70;;;;;;5094170;28;20028;-74
2021/12/04 08:41:50;;;;;;;5.18;1.10;;;18.00;95.20;;;;;;5094367;28;20024;-74
2021/12/04 08:44:19;;;;;;;7.40;1.35;;;18.00;94.80;;;;;;5093160;28;20494;-75
2021/12/04 08:46:46;;;;;;;6.38;1.20;;;18.10;95.10;;;;;;5094650;28;20056;-75
2021/12/04 08:49:12;;;;;;;9.27;1.95;;;18.00;94.50;;;;;;5075536;28;20035;-75
2021/12/04 08:51:42;;;;;;;7.90;1.67;;;18.00;94.90;;;;;;5093830;28;20024;-76
2021/12/04 08:54:09;;;;;;;10.02;1.45;;;18.00;95.00;;;;;;5093660;28;20043;-75
2021/12/04 08:56:36;;;;;;;5.47;1.30;;;17.80;93.80;;;;;;5093573;28;20032;-74
2021/12/04 08:59:04;;;;;;;7.07;1.30;;;17.90;94.50;;;;;;5093341;28;20353;-74
2021/12/04 09:01:34;;;;;;;4.80;1.17;;;17.80;94.40;;;;;;5091982;28;20569;-74
2021/12/04 09:04:14;;;;;;;6.03;1.23;;;17.80;94.60;;;;;;5093645;28;20043;-74
2021/12/04 09:06:41;;;;;;;7.88;1.55;;;17.80;94.20;;;;;;5093269;28;20051;-74
2021/12/04 09:09:10;;;;;;;14.60;1.80;;;17.80;95.50;;;;;;5093331;28;20488;-74
2021/12/04 09:11:54;;;;;;;6.05;1.40;;;17.90;95.40;;;;;;5093133;28;20039;-74
2021/12/04 09:14:25;;;;;;;8.10;1.38;;;17.90;95.00;;;;;;5093244;28;20434;-73
2021/12/04 09:16:53;;;;;;;6.78;1.20;;;17.70;95.00;;;;;;5093493;28;20028;-74
2021/12/04 09:19:22;;;;;;;6.82;1.90;;;17.80;94.00;;;;;;5093452;28;20025;-74
2021/12/04 09:21:51;;;;;;;6.57;1.30;;;17.70;94.80;;;;;;5093339;28;20406;-74
2021/12/04 09:24:24;;;;;;;9.63;1.15;;;17.60;94.20;;;;;;5075399;28;20059;-73
2021/12/04 09:29:36;;;;;;;6.15;1.30;;;17.60;95.00;;;;;;5093252;28;20031;-73
2021/12/04 09:35:07;;;;;;;4.43;1.08;;;17.70;95.30;;;;;;5093477;28;20047;-74
2021/12/04 09:59:44;;;;;;;13.02;1.75;;;17.00;96.20;;;;;;5092547;28;20506;-75
2021/12/04 10:18:47;;;;;;;6.28;1.00;;;17.00;95.00;;;;;;5092320;28;20024;-72
2021/12/04 10:24:13;;;;;;;6.47;1.23;;;17.20;94.10;;;;;;5092147;28;20514;-73
2021/12/04 10:32:26;;;;;;;5.82;1.10;;;17.10;95.30;;;;;;5092621;28;20040;-72
2021/12/04 10:34:59;;;;;;;6.82;0.90;;;16.70;95.50;;;;;;5091726;28;20070;-72
2021/12/04 10:37:29;;;;;;;6.32;0.98;;;16.70;96.00;;;;;;5092540;28;20032;-72
2021/12/04 10:39:59;;;;;;;6.63;1.10;;;16.90;94.80;;;;;;5092111;28;20452;-71
2021/12/04 10:42:34;;;;;;;6.88;0.90;;;17.10;95.40;;;;;;5091673;28;20036;-71
2021/12/04 10:45:01;;;;;;;8.32;1.10;;;17.00;94.90;;;;;;5092101;28;20020;-74
2021/12/04 10:47:28;;;;;;;;;;;17.10;94.70;;;;;;5092158;28;20032;-74
2021/12/04 10:55:25;;;;;;;6.75;1.02;;;17.20;94.60;;;;;;5091536;28;20089;-73
2021/12/04 10:58:23;;;;;;;4.15;1.10;;;17.40;93.50;;;;;;5091606;28;20039;-73
2021/12/04 11:37:46;;;;;;;4.20;0.77;;;17.20;90.90;;;;;;5095329;28;20055;-74
2021/12/04 11:42:40;;;;;;;2.97;0.80;;;17.00;91.30;;;;;;5094723;28;20036;-75
2021/12/04 11:45:25;;;;;;;4.03;1.10;;;17.10;91.60;;;;;;5094645;28;20020;-74
2021/12/04 11:47:54;;;;;;;4.22;0.95;;;17.30;92.20;;;;;;5094415;28;20075;-75
2021/12/04 11:50:39;;;;;;;5.03;0.90;;;17.30;91.70;;;;;;5094711;28;20025;-74
2021/12/04 11:53:10;;;;;;;7.30;1.27;;;17.30;91.20;;;;;;5094862;28;20028;-73
2021/12/04 11:55:40;;;;;;;4.28;1.00;;;17.30;91.20;;;;;;5095280;28;20098;-76
2021/12/04 11:58:19;;;;;;;7.25;0.90;;;17.30;91.40;;;;;;5094642;28;20024;-76
2021/12/04 12:00:46;;;;;;;6.72;0.98;;;17.40;91.00;;;;;;5094516;28;20432;-79
2021/12/04 12:03:23;;;;;;;;;;;17.40;91.70;;;;;;5092593;28;20027;-80
2021/12/04 12:05:52;;;;;;;5.30;0.82;;;17.10;91.00;;;;;;5092277;28;19904;-76
2021/12/04 12:08:35;;;;;;;6.05;0.80;;;17.10;90.70;;;;;;5092599;28;20119;-76
2021/12/04 12:11:06;;;;;;;6.20;0.90;;;17.00;90.80;;;;;;5094520;28;20028;-78
2021/12/04 12:13:45;;;;;;;6.88;1.30;;;16.70;91.30;;;;;;5093360;28;20024;-77
2021/12/04 12:16:23;;;;;;;3.10;0.65;;;16.80;91.50;;;;;;5093823;28;20034;-77
2021/12/04 12:19:21;;;;;;;4.40;1.27;;;17.00;91.10;;;;;;5093791;28;20024;-77
2021/12/04 12:21:58;;;;;;;5.00;1.08;;;17.00;91.30;;;;;;5093972;28;20035;-76
2021/12/04 12:39:00;;;;;;;4.03;1.00;;;16.70;92.30;;;;;;5094342;28;20035;-77
2021/12/04 12:41:43;;;;;;;5.20;0.80;;;17.10;92.20;;;;;;5094439;28;20472;-78
2021/12/04 12:44:27;;;;;;;2.80;0.80;;;17.30;91.30;;;;;;5093966;28;20021;-79
2021/12/04 12:47:20;;;;;;;6.22;0.80;;;17.30;94.00;;;;;;5094187;28;20089;-79
2021/12/04 12:49:48;;;;;;;3.15;0.80;;;17.20;91.70;;;;;;5092488;28;20031;-79
2021/12/04 12:52:21;;;;;;;5.75;1.05;;;17.30;92.00;;;;;;5094005;28;20027;-79
2021/12/04 12:55:10;;;;;;;3.08;0.80;;;17.10;91.10;;;;;;5093414;28;20091;-79
2021/12/04 12:57:44;;;;;;;5.72;1.05;;;17.10;91.60;;;;;;5093990;28;20034;-79
2021/12/04 13:14:25;;;;;;;5.50;1.20;;;16.70;91.60;;;;;;5094246;28;20100;-77
2021/12/04 13:17:11;;;;;;;7.13;1.00;;;16.60;92.30;;;;;;5094375;28;20111;-79
2021/12/04 13:19:46;;;;;;;3.15;0.70;;;16.40;92.20;;;;;;5094482;28;20024;-77
2021/12/04 13:22:17;;;;;;;5.30;0.93;;;16.50;92.30;;;;;;5093947;28;20032;-78
2021/12/04 13:24:45;;;;;;;4.05;0.82;;;16.60;92.50;;;;;;5093089;28;20035;-79
2021/12/04 13:29:41;;;;;;;6.97;0.90;;;16.60;93.60;;;;;;5094714;28;20410;-78
2021/12/04 13:32:11;;;;;;;8.50;1.58;;;16.80;94.20;;;;;;5093741;28;20036;-78
2021/12/04 13:34:40;;;;;;;4.18;0.77;;;16.90;94.00;;;;;;5094230;28;20518;-77
2021/12/04 13:37:08;;;;;;;7.30;1.20;;;16.90;93.90;;;;;;5092873;28;20040;-77
2021/12/04 13:39:35;;;;;;;5.65;1.00;;;17.10;93.90;;;;;;5093500;28;20069;-78
2021/12/04 13:42:03;;;;;;;8.77;1.30;;;17.20;93.70;;;;;;5092301;28;20031;-77
2021/12/04 13:44:31;;;;;;;5.95;1.20;;;17.10;93.80;;;;;;5093647;28;20031;-78
2021/12/04 13:47:03;;;;;;;4.90;1.30;;;17.00;94.00;;;;;;5093765;28;20028;-78
2021/12/04 13:49:37;;;;;;;9.00;2.13;;;16.70;94.30;;;;;;5093569;28;20484;-77
2021/12/04 13:52:09;;;;;;;3.88;1.20;;;16.40;94.70;;;;;;5093454;28;20040;-78
2021/12/04 13:54:41;;;;;;;5.25;1.10;;;16.50;95.00;;;;;;5075785;28;20107;-78
2021/12/04 13:57:10;;;;;;;4.10;0.98;;;16.00;94.70;;;;;;5093542;28;20024;-78
2021/12/04 13:59:37;;;;;;;5.50;1.35;;;15.90;94.90;;;;;;5093357;28;20016;-77
2021/12/04 14:02:03;;;;;;;5.95;1.55;;;15.80;95.20;;;;;;5092098;28;20055;-78
2021/12/04 14:04:30;;;;;;;6.07;0.93;;;15.80;94.70;;;;;;5092073;28;20028;-78
2021/12/04 14:07:00;;;;;;;7.72;1.05;;;15.80;95.20;;;;;;5091863;28;20051;-77
2021/12/04 14:09:37;;;;;;;5.93;1.17;;;15.90;95.50;;;;;;5093273;28;20450;-78
2021/12/04 14:12:04;;;;;;;;;;;16.20;95.40;;;;;;5094055;28;20173;-77
2021/12/04 14:14:33;;;;;;;8.48;1.25;;;16.40;96.00;;;;;;5093253;28;19998;-77
2021/12/04 14:17:09;;;;;;;7.10;1.33;;;16.60;95.30;;;;;;5093266;28;20020;-77
2021/12/04 14:19:37;;;;;;;6.90;1.65;;;16.40;95.10;;;;;;5093649;28;20384;-76
2021/12/04 14:22:15;;;;;;;5.88;1.25;;;16.10;95.60;;;;;;5092921;28;20032;-78
2021/12/04 14:24:47;;;;;;;6.57;1.23;;;16.20;95.90;;;;;;5093439;28;20028;-78
2021/12/04 14:27:20;;;;;;;6.88;1.50;;;16.50;96.40;;;;;;5093619;28;20043;-77
2021/12/04 14:29:57;;;;;;;6.18;1.50;;;16.50;96.80;;;;;;5093607;28;20075;-78
2021/12/04 14:32:28;;;;;;;7.90;1.20;;;16.60;97.40;;;;;;5093674;28;20161;-78
2021/12/04 14:35:00;;;;;;;6.03;1.40;;;16.60;97.70;;;;;;5092114;28;20055;-77
2021/12/04 14:37:31;;;;;;;13.43;1.65;;;16.50;98.10;;;;;;5095901;28;20020;-78
2021/12/04 14:39:57;;;;;;;10.52;1.58;;;16.40;98.10;;;;;;5097705;28;20129;-77
2021/12/04 14:42:30;;;;;;;6.47;1.30;;;16.20;98.10;;;;;;5097038;28;20028;-76
2021/12/04 14:45:04;;;;;;;10.77;1.60;;;16.30;97.50;;;;;;5097246;28;20051;-76
2021/12/04 14:47:35;;;;;;;8.43;2.10;;;16.00;97.50;;;;;;5097516;28;20032;-77
2021/12/04 14:50:07;;;;;;;8.15;1.50;;;15.90;97.60;;;;;;5095121;28;20026;-76
2021/12/04 14:52:38;;;;;;;6.63;1.40;;;15.80;98.30;;;;;;5096785;28;20055;-76
2021/12/04 14:55:24;;;;;;;4.57;1.33;;;15.60;98.90;;;;;;5096567;28;20067;-76
2021/12/04 14:57:51;;;;;;;6.35;1.50;;;15.70;99.00;;;;;;5096896;28;20020;-77
2021/12/04 15:00:50;;;;;;;8.80;1.60;;;15.50;99.10;;;;;;5095142;28;20030;-77
2021/12/04 15:03:20;;;;;;;10.90;1.92;;;15.50;98.90;;;;;;5096652;28;20033;-77
2021/12/04 15:05:55;;;;;;;8.63;1.63;;;15.40;98.80;;;;;;5096900;28;20035;-76
2021/12/04 15:08:27;;;;;;;7.53;1.65;;;15.40;99.30;;;;;;5096379;28;20047;-76
2021/12/04 15:11:06;;;;;;;5.22;1.60;;;15.40;98.80;;;;;;5096614;28;20365;-76
2021/12/04 15:13:36;;;;;;;5.70;1.60;;;15.40;98.60;;;;;;5096764;28;20477;-76
2021/12/04 15:16:08;;;;;;;9.48;1.80;;;15.30;98.90;;;;;;5096826;28;20078;-75
2021/12/04 15:18:38;;;;;;;8.65;1.50;;;15.20;99.00;;;;;;5096436;28;20361;-75
2021/12/04 15:21:15;;;;;;;6.32;1.50;;;15.00;99.10;;;;;;5096618;28;20024;-75
2021/12/04 15:23:45;;;;;;;7.93;1.52;;;14.90;99.70;;;;;;5094744;28;20038;-76
2021/12/04 15:26:20;;;;;;;7.60;1.35;;;14.80;99.70;;;;;;5077972;28;20053;-78
2021/12/04 15:28:50;;;;;;;6.15;1.50;;;14.70;99.90;;;;;;5094648;28;20387;-76
2021/12/04 15:31:24;;;;;;;9.30;1.88;;;14.50;99.90;;;;;;5096427;28;20028;-77
2021/12/04 15:33:55;;;;;;;11.23;2.15;;;14.50;99.90;;;;;;5095922;28;20020;-76
2021/12/04 15:36:34;;;;;;;9.52;2.13;;;14.40;99.90;;;;;;5094396;28;20048;-76
2021/12/04 15:39:07;;;;;;;11.88;2.65;;;14.30;99.90;;;;;;5096341;28;20024;-76
2021/12/04 15:41:53;;;;;;;6.95;2.30;;;14.10;99.90;;;;;;5096308;28;20103;-77
2021/12/04 15:47:33;;;;;;;11.52;2.35;;;13.90;99.90;;;;;;5094876;28;20060;-76
2021/12/04 15:50:30;;;;;;;9.07;2.22;;;13.90;99.90;;;;;;5094845;28;20496;-77
2021/12/04 15:55:36;;;;;;;10.80;2.25;;;13.70;99.90;;;;;;5095184;28;20036;-77
2021/12/04 15:58:11;;;;;;;11.98;2.65;;;13.60;99.90;;;;;;5095359;28;20024;-77
2021/12/04 16:00:52;;;;;;;9.02;2.22;;;13.50;99.90;;;;;;5095625;28;20448;-79
2021/12/04 16:03:23;;;;;;;7.40;2.10;;;13.50;99.90;;;;;;5095370;28;20499;-76
2021/12/04 16:05:52;;;;;;;9.00;2.28;;;13.40;99.90;;;;;;5095382;28;20024;-78
2021/12/04 16:08:25;;;;;;;10.05;2.88;;;13.40;99.90;;;;;;5094886;28;20089;-76
2021/12/04 16:10:55;;;;;;;8.68;3.03;;;13.40;99.90;;;;;;5095278;28;20021;-78
2021/12/04 16:13:27;;;;;;;8.07;2.35;;;13.30;99.90;;;;;;5095204;28;20039;-76
2021/12/04 16:15:54;;;;;;;12.15;2.30;;;13.20;99.90;;;;;;5094707;28;20034;-75
2021/12/04 16:18:27;;;;;;;8.77;2.47;;;13.20;99.90;;;;;;5095126;28;20109;-75
2021/12/04 16:20:54;;;;;;;12.45;2.90;;;13.20;99.90;;;;;;5093323;28;20023;-77
2021/12/04 16:23:22;;;;;;;12.15;2.70;;;13.10;99.90;;;;;;5093428;28;20027;-76